To NAV CANADA Home Page Login to a new session Search on AWWS site Feedback and Comments Disclaimer Vers la page française équivalente Tips FAQ What's new on the site To the Forecasts and Observations / NOTAM section To "File a Flight Plan" website Publications and other links Update of the User's profile FIC Telephone Numbers My Weather Data Folder Route Weather Data Regional Weather Data Local Weather Data To the Forecasts and Observations / NOTAM section
Request Generated 01/17/2017 at 04:53:58 UTC . Weather information available at that time is displayed.

METAR/TAF

ISLAND LAKE/MB    

METAR CYIV 170400Z 00000KT 15SM SKC M06/M08 A2986 RMK SLP131=
METAR CYIV 170300Z 14006KT 15SM SKC M07/M08 A2988 RMK SLP138=
METAR CYIV 170200Z 15005KT 15SM SKC M06/M07 A2990 RMK SLP145=

TAF CYIV 170038Z 1701/1713 14010KT P6SM FEW100 FEW250
BECMG 1703/1705 20010KT
FM170900 21010KT P6SM BKN090
RMK NXT FCST BY 170700Z=
Your time UTC time
Weather data provided by Environment Canada and NAV CANADA